Time;durP1;ratioP1;P1;durP2;ratioP2;P2;SDS_P1;SDS_P2;PMS_P1;PMS_P2;Temp;Humidity;BMP_temperature;BMP_pressure;BME280_temperature;BME280_humidity;BME280_pressure;Samples;Min_cycle;Max_cycle;Signal;HPM_P1;HPM_P2
2022/02/09 00:01:28;;;;;;;19.00;14.97;;;9.20;1.00;;;;;;5117631;27;20225;-86
2022/02/09 00:04:01;;;;;;;17.30;14.40;;;9.20;1.00;;;;;;5124439;27;20474;-86
2022/02/09 00:06:42;;;;;;;19.10;14.87;;;9.30;1.00;;;;;;5123528;27;20468;-86
2022/02/09 00:09:09;;;;;;;16.80;13.93;;;9.20;1.00;;;;;;5116124;27;20526;-85
2022/02/09 00:11:43;;;;;;;20.92;15.75;;;9.30;1.00;;;;;;5118137;27;20534;-87
2022/02/09 00:14:19;;;;;;;17.27;13.83;;;9.30;1.00;;;;;;5121079;27;20240;-86
2022/02/09 00:17:10;;;;;;;18.58;15.38;;;9.30;1.00;;;;;;5118405;27;20466;-86
2022/02/09 00:19:51;;;;;;;17.20;14.43;;;9.30;1.00;;;;;;5114309;27;20233;-86
2022/02/09 00:22:30;;;;;;;19.77;15.25;;;9.20;1.00;;;;;;5119782;27;20224;-86
2022/02/09 00:25:31;;;;;;;18.13;14.73;;;9.30;1.00;;;;;;5122943;27;20231;-83
2022/02/09 00:28:22;;;;;;;22.10;13.60;;;9.20;1.00;;;;;;5122835;27;20483;-87
2022/02/09 00:31:16;;;;;;;19.27;14.10;;;9.20;1.00;;;;;;5125378;27;20463;-86
2022/02/09 00:34:20;;;;;;;17.83;13.82;;;9.20;1.00;;;;;;5125140;27;20492;-87
2022/02/09 00:37:20;;;;;;;18.25;14.40;;;9.30;1.00;;;;;;5144372;27;20283;-86
2022/02/09 00:40:16;;;;;;;20.77;15.43;;;9.20;1.00;;;;;;5124950;27;20219;-84
2022/02/09 00:43:05;;;;;;;18.73;15.00;;;9.20;1.00;;;;;;5119971;27;20890;-85
2022/02/09 01:38:06;;;;;;;21.05;15.95;;;9.10;1.00;;;;;;5133951;27;20229;-87
2022/02/09 01:41:16;;;;;;;20.02;14.50;;;9.10;1.00;;;;;;5155741;27;20207;-85
2022/02/09 01:57:17;;;;;;;19.43;13.67;;;9.10;1.00;;;;;;5123745;27;20554;-86
2022/02/09 01:59:46;;;;;;;20.15;13.90;;;9.10;1.00;;;;;;5118114;27;20475;-85
2022/02/09 02:02:14;;;;;;;20.95;15.10;;;9.10;1.00;;;;;;5118150;27;20223;-85
2022/02/09 02:04:41;;;;;;;18.00;14.13;;;9.10;1.00;;;;;;5120100;27;20211;-87
2022/02/09 02:07:19;;;;;;;18.17;13.90;;;9.10;1.00;;;;;;5121120;27;20356;-87
2022/02/09 02:09:45;;;;;;;19.63;15.32;;;9.10;1.00;;;;;;5120003;27;20471;-88
2022/02/09 02:12:16;;;;;;;16.92;13.32;;;9.10;1.00;;;;;;5116683;27;20345;-86
2022/02/09 02:14:47;;;;;;;20.38;15.25;;;9.10;1.00;;;;;;5119793;27;20221;-86
2022/02/09 02:17:20;;;;;;;20.42;15.10;;;9.00;1.00;;;;;;5119121;27;20225;-87
2022/02/09 02:19:50;;;;;;;21.83;15.87;;;9.10;1.00;;;;;;5119220;27;20215;-86
2022/02/09 02:22:37;;;;;;;18.92;14.32;;;9.10;1.00;;;;;;5119153;27;20518;-86
2022/02/09 02:25:39;;;;;;;17.13;14.03;;;9.10;1.00;;;;;;5117994;27;20237;-86
2022/02/09 02:28:34;;;;;;;20.38;15.32;;;9.10;1.00;;;;;;5117801;27;20439;-87
2022/02/09 02:36:53;;;;;;;18.40;14.07;;;9.00;1.00;;;;;;5126126;27;20228;-86
2022/02/09 02:39:46;;;;;;;17.25;14.30;;;9.00;1.00;;;;;;5120177;27;20452;-87
2022/02/09 03:12:58;;;;;;;14.93;11.70;;;9.00;1.00;;;;;;5127287;27;21098;-84
2022/02/09 03:15:33;;;;;;;15.53;12.07;;;9.00;1.00;;;;;;5123715;27;20456;-84
2022/02/09 03:18:25;;;;;;;13.17;11.57;;;9.00;1.00;;;;;;5113984;27;20467;-86
2022/02/09 03:20:57;;;;;;;13.50;11.80;;;9.00;1.00;;;;;;5110534;27;20443;-86
2022/02/09 03:23:42;;;;;;;12.97;11.57;;;9.00;1.00;;;;;;5116900;27;20230;-85
2022/02/09 03:26:31;;;;;;;13.43;11.70;;;9.00;1.00;;;;;;5112848;27;20442;-85
2022/02/09 03:42:52;;;;;;;15.77;12.20;;;9.00;1.00;;;;;;5109597;27;20226;-82
2022/02/09 03:45:57;;;;;;;15.07;13.50;;;9.00;1.00;;;;;;5119976;27;20517;-84
2022/02/09 03:48:53;;;;;;;18.67;13.60;;;9.00;1.00;;;;;;5110930;27;21349;-84
2022/02/09 03:54:11;;;;;;;15.45;13.52;;;9.00;1.00;;;;;;5105463;27;20324;-84
2022/02/09 03:59:30;;;;;;;17.63;13.73;;;9.10;1.00;;;;;;5085674;27;20503;-83
2022/02/09 04:01:57;;;;;;;17.33;15.45;;;9.10;1.00;;;;;;5101151;27;20561;-84
2022/02/09 04:04:24;;;;;;;18.07;14.90;;;9.10;1.00;;;;;;5095995;27;21112;-82
2022/02/09 04:06:52;;;;;;;17.42;15.43;;;9.10;1.00;;;;;;5098479;27;21094;-86
2022/02/09 04:09:23;;;;;;;17.85;14.90;;;9.10;1.00;;;;;;5107239;27;20298;-86
2022/02/09 04:11:57;;;;;;;22.83;16.43;;;9.10;1.00;;;;;;5096560;27;20419;-86
2022/02/09 04:14:31;;;;;;;18.98;16.98;;;9.10;1.00;;;;;;5099363;27;20453;-86
2022/02/09 04:17:10;;;;;;;21.50;16.87;;;9.00;1.00;;;;;;5096812;27;21136;-85
2022/02/09 04:19:46;;;;;;;18.37;15.80;;;9.00;1.00;;;;;;5085881;27;20468;-85
2022/02/09 04:22:49;;;;;;;21.88;17.65;;;9.00;1.00;;;;;;5108899;27;20459;-86
2022/02/09 04:36:31;;;;;;;21.30;18.00;;;9.00;1.00;;;;;;5098716;27;21048;-87
2022/02/09 04:39:05;;;;;;;22.80;18.90;;;9.00;1.00;;;;;;5087621;27;20253;-87
2022/02/09 04:44:31;;;;;;;21.92;19.02;;;9.00;1.00;;;;;;5096381;27;20473;-84
2022/02/09 04:49:57;;;;;;;24.53;19.83;;;9.00;1.00;;;;;;5107473;27;20227;-86
2022/02/09 04:52:33;;;;;;;20.67;17.08;;;9.00;1.00;;;;;;5106601;27;20520;-86
2022/02/09 04:55:18;;;;;;;22.17;18.80;;;9.00;1.00;;;;;;5102166;27;20223;-84
2022/02/09 04:57:49;;;;;;;19.60;17.02;;;9.00;1.00;;;;;;5103107;27;20218;-86
2022/02/09 05:00:26;;;;;;;24.00;19.40;;;9.00;1.00;;;;;;5103779;27;20237;-86
2022/02/09 05:17:48;;;;;;;20.17;17.67;;;9.00;1.00;;;;;;5081628;27;20282;-86
2022/02/09 05:22:41;;;;;;;15.33;13.77;;;9.10;1.00;;;;;;5111202;27;20471;-84
2022/02/09 05:28:04;;;;;;;15.67;13.77;;;9.10;1.00;;;;;;5097020;27;21008;-86
2022/02/09 05:30:31;;;;;;;15.93;14.30;;;9.10;1.00;;;;;;5102709;27;20465;-88
2022/02/09 05:32:58;;;;;;;15.97;14.27;;;9.10;1.00;;;;;;5105545;27;20251;-87
2022/02/09 05:35:26;;;;;;;15.20;13.13;;;9.10;1.00;;;;;;5105793;27;20500;-88
2022/02/09 05:37:54;;;;;;;13.88;12.57;;;9.10;1.00;;;;;;5129451;27;20429;-87
2022/02/09 05:40:21;;;;;;;13.70;12.23;;;9.10;1.00;;;;;;5113450;27;20239;-81
2022/02/09 05:42:48;;;;;;;13.43;11.68;;;9.10;1.00;;;;;;5117501;27;20448;-85
2022/02/09 05:45:18;;;;;;;12.80;11.40;;;9.10;1.00;;;;;;5109569;27;20678;-84
2022/02/09 05:50:39;;;;;;;11.13;9.75;;;9.10;1.00;;;;;;5020818;28;20781;-84
2022/02/09 05:53:11;;;;;;;14.30;11.97;;;9.20;1.00;;;;;;5102120;27;20230;-83
2022/02/09 05:55:46;;;;;;;11.93;10.50;;;9.10;1.00;;;;;;5108087;27;20588;-83
2022/02/09 05:58:32;;;;;;;12.90;9.80;;;9.10;1.00;;;;;;5103896;27;20514;-82
2022/02/09 06:01:01;;;;;;;12.48;9.70;;;9.10;1.00;;;;;;5111992;27;20214;-83
2022/02/09 06:03:28;;;;;;;10.40;8.37;;;9.10;1.00;;;;;;5101615;27;20835;-83
2022/02/09 06:05:55;;;;;;;11.70;9.80;;;9.10;1.00;;;;;;5098456;27;20460;-83
2022/02/09 06:08:23;;;;;;;10.53;9.43;;;9.10;1.00;;;;;;5107489;27;20506;-85
2022/02/09 06:11:02;;;;;;;11.40;9.30;;;9.10;1.00;;;;;;5106846;27;21456;-84
2022/02/09 06:13:44;;;;;;;9.87;8.40;;;9.10;1.00;;;;;;5106113;27;20574;-84
2022/02/09 06:19:40;;;;;;;10.50;9.27;;;9.10;1.00;;;;;;5091937;28;20422;-83
2022/02/09 06:21:51;;;;;;;9.97;7.73;;;9.20;1.00;;;;;;5106057;27;20458;-83
2022/02/09 06:24:18;;;;;;;9.60;8.70;;;9.20;1.00;;;;;;5111026;27;20956;-86
2022/02/09 06:26:45;;;;;;;11.53;8.40;;;9.10;1.00;;;;;;5101772;27;20603;-80
2022/02/09 06:29:12;;;;;;;12.27;9.60;;;9.20;1.00;;;;;;5095784;27;20553;-83
2022/02/09 06:31:43;;;;;;;10.88;8.52;;;9.20;1.00;;;;;;5101966;27;20235;-83
2022/02/09 06:34:12;;;;;;;9.38;8.05;;;9.20;1.00;;;;;;5107212;27;20280;-83
2022/02/09 06:36:43;;;;;;;8.60;7.70;;;9.20;1.00;;;;;;5107539;27;20239;-82
2022/02/09 06:39:11;;;;;;;11.53;8.97;;;9.20;1.00;;;;;;5111520;27;20468;-82
2022/02/09 06:41:40;;;;;;;12.90;7.63;;;9.30;1.00;;;;;;5096046;27;20576;-85
2022/02/09 06:44:08;;;;;;;9.63;7.93;;;9.20;1.00;;;;;;5108144;27;20237;-85
2022/02/09 06:46:37;;;;;;;10.23;8.20;;;9.30;1.00;;;;;;5087347;28;20502;-84
2022/02/09 06:49:07;;;;;;;9.77;7.80;;;9.30;1.00;;;;;;5094996;27;20539;-82
2022/02/09 06:51:37;;;;;;;11.23;8.73;;;9.30;1.00;;;;;;5092440;27;20247;-82
2022/02/09 06:54:13;;;;;;;10.90;7.33;;;9.40;1.00;;;;;;5086106;27;20501;-85
2022/02/09 06:57:00;;;;;;;8.50;7.60;;;9.40;1.00;;;;;;5102090;27;20447;-82
2022/02/09 06:59:30;;;;;;;8.27;7.23;;;9.50;1.00;;;;;;5125772;27;20553;-81
2022/02/09 07:01:57;;;;;;;9.25;7.40;;;9.50;1.00;;;;;;5116990;27;20785;-82
2022/02/09 07:04:26;;;;;;;9.60;7.77;;;9.50;1.00;;;;;;5125475;27;20843;-88
2022/02/09 07:06:54;;;;;;;8.70;7.80;;;9.50;1.00;;;;;;5103383;27;20438;-88
2022/02/09 07:09:21;;;;;;;8.97;7.73;;;9.60;1.00;;;;;;5106155;27;20464;-85
2022/02/09 07:11:48;;;;;;;8.35;7.55;;;9.60;1.00;;;;;;5099218;27;20552;-83
2022/02/09 07:14:20;;;;;;;9.50;8.30;;;9.60;1.00;;;;;;5093991;27;20220;-87
2022/02/09 07:16:48;;;;;;;9.53;8.00;;;9.70;1.00;;;;;;5094379;27;20447;-86
2022/02/09 07:19:15;;;;;;;8.40;7.57;;;9.70;1.00;;;;;;5106038;27;20620;-86
2022/02/09 07:21:43;;;;;;;9.25;7.90;;;9.70;1.00;;;;;;5103746;27;21282;-87
2022/02/09 07:24:13;;;;;;;11.70;7.80;;;9.70;1.00;;;;;;5102539;28;20320;-85
2022/02/09 07:26:49;;;;;;;9.43;7.50;;;9.70;1.00;;;;;;5095427;27;20454;-84
2022/02/09 07:29:17;;;;;;;9.10;7.50;;;9.80;1.00;;;;;;5088729;27;20461;-86
2022/02/09 07:31:45;;;;;;;7.85;7.05;;;9.80;1.00;;;;;;5111392;27;20429;-82
2022/02/09 07:34:12;;;;;;;10.70;7.90;;;9.70;1.00;;;;;;5115259;27;20229;-81
2022/02/09 07:36:42;;;;;;;9.57;7.40;;;9.80;1.00;;;;;;5109281;27;20414;-83
2022/02/09 07:39:10;;;;;;;8.65;7.45;;;9.90;1.00;;;;;;5095363;27;20518;-82
2022/02/09 07:41:40;;;;;;;8.15;7.10;;;9.80;1.00;;;;;;5111782;27;20262;-88
2022/02/09 07:44:17;;;;;;;7.87;6.90;;;9.90;1.00;;;;;;5082037;27;20266;-88
2022/02/09 07:47:02;;;;;;;8.47;7.67;;;9.90;1.00;;;;;;5101783;27;20446;-85
2022/02/09 07:49:49;;;;;;;9.60;6.83;;;9.90;1.00;;;;;;5106074;27;20513;-87
2022/02/09 07:52:23;;;;;;;7.33;6.57;;;9.90;1.00;;;;;;5090725;27;20468;-86
2022/02/09 07:54:54;;;;;;;9.00;6.07;;;9.90;1.00;;;;;;5106902;27;20417;-87
2022/02/09 07:57:22;;;;;;;8.07;7.20;;;9.90;1.00;;;;;;5112067;27;20426;-86
2022/02/09 07:59:50;;;;;;;8.57;7.83;;;9.90;1.00;;;;;;5104428;27;20454;-88
2022/02/09 08:02:17;;;;;;;6.40;5.80;;;9.90;1.00;;;;;;5099685;27;20485;-81
2022/02/09 08:04:45;;;;;;;7.17;6.20;;;9.90;1.00;;;;;;5108682;27;20481;-83
2022/02/09 08:07:14;;;;;;;7.30;6.50;;;9.90;1.00;;;;;;5112007;27;20480;-83
2022/02/09 08:09:43;;;;;;;9.27;8.37;;;10.00;1.00;;;;;;5112163;27;20426;-85
2022/02/09 08:12:38;;;;;;;8.13;7.00;;;10.00;1.00;;;;;;5110717;27;20561;-84
2022/02/09 08:23:51;;;;;;;5.75;4.53;;;10.10;1.00;;;;;;5110728;27;21361;-85
2022/02/09 08:29:17;;;;;;;5.70;5.20;;;10.20;1.00;;;;;;5087931;27;20466;-88
2022/02/09 08:31:58;;;;;;;5.60;5.10;;;10.20;1.00;;;;;;5109554;27;20460;-88
2022/02/09 08:34:25;;;;;;;5.77;4.80;;;10.20;1.00;;;;;;5107243;27;20442;-89
2022/02/09 08:36:54;;;;;;;5.10;4.60;;;10.20;1.00;;;;;;5091892;27;20446;-87
2022/02/09 08:39:32;;;;;;;5.23;4.07;;;10.20;1.00;;;;;;5103036;28;20414;-88
2022/02/09 08:42:02;;;;;;;6.30;5.20;;;10.20;1.00;;;;;;5192303;22;20538;-88
2022/02/09 08:44:31;;;;;;;6.63;5.67;;;10.20;1.00;;;;;;5096666;28;20972;-88
2022/02/09 08:46:58;;;;;;;8.20;6.10;;;10.20;1.00;;;;;;5112376;27;20438;-89
2022/02/09 08:49:26;;;;;;;8.00;6.40;;;10.20;1.00;;;;;;5097492;28;20413;-84
2022/02/09 08:51:53;;;;;;;6.80;6.20;;;10.20;1.00;;;;;;5110589;27;20415;-86
2022/02/09 08:54:20;;;;;;;8.45;6.85;;;10.20;1.00;;;;;;5086215;28;20250;-87
2022/02/09 08:56:47;;;;;;;6.90;6.10;;;10.10;1.00;;;;;;5083672;28;20225;-86
2022/02/09 08:59:14;;;;;;;6.40;5.40;;;10.10;1.00;;;;;;5088812;27;20445;-85
2022/02/09 09:01:45;;;;;;;8.27;6.03;;;10.00;1.00;;;;;;5088529;28;20227;-87
2022/02/09 09:04:18;;;;;;;7.22;5.72;;;10.00;1.00;;;;;;5082300;28;20508;-88
2022/02/09 09:06:52;;;;;;;6.87;6.03;;;10.00;1.00;;;;;;5062854;28;20247;-88
2022/02/09 09:09:37;;;;;;;7.47;6.40;;;10.10;1.00;;;;;;5080057;28;20553;-85
2022/02/09 09:15:56;;;;;;;5.60;4.83;;;10.20;1.00;;;;;;5086591;28;20458;-86
2022/02/09 10:32:05;;;;;;;5.15;4.65;;;10.40;1.00;;;;;;5075215;28;20595;-81
2022/02/09 10:34:36;;;;;;;5.23;4.77;;;10.30;1.00;;;;;;5077329;28;20236;-86
2022/02/09 10:37:08;;;;;;;6.07;5.40;;;10.50;1.00;;;;;;5092223;28;21296;-87
2022/02/09 10:39:54;;;;;;;8.30;5.37;;;10.60;1.00;;;;;;5092512;28;20450;-86
2022/02/09 10:42:32;;;;;;;6.70;6.00;;;10.80;1.00;;;;;;5093696;28;20456;-88
2022/02/09 10:45:06;;;;;;;5.00;4.50;;;10.80;1.00;;;;;;5074124;28;20442;-87
2022/02/09 10:47:35;;;;;;;7.80;4.93;;;10.90;1.00;;;;;;5075325;28;20528;-88
2022/02/09 10:50:11;;;;;;;5.03;4.13;;;10.90;1.00;;;;;;5071200;28;20451;-86
2022/02/09 10:52:41;;;;;;;4.70;4.30;;;10.90;1.00;;;;;;5097347;28;20466;-88
2022/02/09 10:55:27;;;;;;;4.47;4.07;;;10.90;1.00;;;;;;5076736;28;20439;-91
2022/02/09 10:57:56;;;;;;;5.67;4.47;;;10.90;1.00;;;;;;5080608;28;20454;-89
2022/02/09 11:00:25;;;;;;;8.27;4.33;;;10.90;1.00;;;;;;5081386;28;20454;-86
2022/02/09 11:02:55;;;;;;;4.87;4.20;;;10.90;1.00;;;;;;5085378;28;20935;-87
2022/02/09 11:05:23;;;;;;;8.60;3.63;;;10.90;1.00;;;;;;5099166;27;20516;-86
2022/02/09 11:07:51;;;;;;;4.13;3.73;;;10.90;1.00;;;;;;5102021;27;20443;-85
2022/02/09 11:10:19;;;;;;;4.37;3.30;;;10.90;1.00;;;;;;5080139;28;20425;-86
2022/02/09 11:12:46;;;;;;;4.40;4.00;;;10.90;1.00;;;;;;5113020;27;20428;-85
2022/02/09 11:15:19;;;;;;;3.30;2.70;;;10.90;1.00;;;;;;5117457;27;20474;-85
2022/02/09 11:17:47;;;;;;;4.90;3.77;;;10.90;1.00;;;;;;5119747;27;20228;-86
2022/02/09 11:20:16;;;;;;;4.10;3.10;;;11.00;1.00;;;;;;5119868;27;20442;-85
2022/02/09 11:22:44;;;;;;;4.57;3.50;;;11.00;1.00;;;;;;5112558;27;21613;-85
2022/02/09 11:25:18;;;;;;;5.07;3.00;;;11.00;1.00;;;;;;5114663;28;20478;-87
2022/02/09 11:27:51;;;;;;;4.90;3.10;;;11.00;1.00;;;;;;5089360;28;20459;-88
2022/02/09 11:30:30;;;;;;;5.07;3.13;;;11.00;1.00;;;;;;5073241;28;20554;-87
2022/02/09 11:33:10;;;;;;;8.13;4.23;;;11.00;1.00;;;;;;5086922;28;20449;-88
2022/02/09 11:35:43;;;;;;;3.60;2.63;;;11.10;1.00;;;;;;5091922;28;20448;-88
2022/02/09 11:38:16;;;;;;;4.20;2.80;;;11.00;1.00;;;;;;5090694;28;20429;-88
2022/02/09 11:40:53;;;;;;;4.57;2.50;;;11.10;1.00;;;;;;5089525;28;20464;-88
2022/02/09 11:43:47;;;;;;;3.67;2.63;;;11.10;1.00;;;;;;5083593;27;20465;-88
2022/02/09 11:46:42;;;;;;;4.00;2.90;;;11.20;1.00;;;;;;5091076;28;20525;-88
2022/02/09 11:55:31;;;;;;;2.77;2.30;;;11.30;1.00;;;;;;5076370;28;20442;-88
2022/02/09 11:58:39;;;;;;;4.73;2.70;;;11.40;1.00;;;;;;5098217;28;20569;-89
2022/02/09 12:10:13;;;;;;;4.67;2.80;;;11.20;1.00;;;;;;4998453;28;20439;-83
2022/02/09 12:12:56;;;;;;;8.70;2.53;;;11.10;1.00;;;;;;5071826;28;20462;-86
2022/02/09 12:15:53;;;;;;;4.60;2.70;;;11.10;1.00;;;;;;5077034;28;21073;-87
2022/02/09 12:18:29;;;;;;;4.73;3.17;;;11.10;1.00;;;;;;5090974;28;20426;-84
2022/02/09 12:21:06;;;;;;;4.53;2.73;;;11.10;1.00;;;;;;5076433;28;20415;-86
2022/02/09 12:23:35;;;;;;;3.90;3.20;;;11.00;1.00;;;;;;5094140;28;20409;-85
2022/02/09 12:26:08;;;;;;;4.33;2.93;;;11.10;1.00;;;;;;5075217;28;20450;-87
2022/02/09 12:28:38;;;;;;;4.70;3.40;;;11.10;1.00;;;;;;5102689;28;20453;-86
2022/02/09 12:31:07;;;;;;;3.43;3.07;;;11.10;1.00;;;;;;5099793;27;20554;-85
2022/02/09 12:33:42;;;;;;;6.40;3.30;;;11.10;1.00;;;;;;5115074;27;20534;-84
2022/02/09 12:36:15;;;;;;;5.23;3.33;;;11.20;1.00;;;;;;5110731;27;20430;-88
2022/02/09 12:38:44;;;;;;;4.23;3.50;;;11.10;1.00;;;;;;5104910;27;20504;-86
2022/02/09 12:41:15;;;;;;;4.83;3.83;;;10.90;1.00;;;;;;5110804;27;20466;-86
2022/02/09 12:44:00;;;;;;;4.23;3.70;;;10.70;1.00;;;;;;5090665;28;20466;-84
2022/02/09 12:46:29;;;;;;;4.77;4.37;;;10.60;1.00;;;;;;5093414;28;20456;-85
2022/02/09 12:49:04;;;;;;;5.97;5.10;;;10.40;1.00;;;;;;5088474;28;20435;-84
2022/02/09 12:51:32;;;;;;;5.77;4.73;;;10.30;1.00;;;;;;5092362;28;20450;-84
2022/02/09 12:54:00;;;;;;;5.30;4.70;;;10.20;1.00;;;;;;5089309;28;20482;-85
2022/02/09 12:56:29;;;;;;;4.60;4.07;;;10.20;1.00;;;;;;5090598;28;20494;-84
2022/02/09 12:59:07;;;;;;;5.50;4.10;;;10.30;1.00;;;;;;5085815;28;20512;-85
2022/02/09 13:01:43;;;;;;;4.15;3.58;;;10.40;1.00;;;;;;5095536;27;20463;-86
2022/02/09 13:06:54;;;;;;;4.87;3.03;;;10.50;1.00;;;;;;5090106;28;20486;-87
2022/02/09 13:09:21;;;;;;;3.80;3.40;;;10.50;1.00;;;;;;5083862;28;20458;-82
2022/02/09 13:11:49;;;;;;;3.70;3.30;;;10.60;1.00;;;;;;5082232;28;20469;-84
2022/02/09 13:14:26;;;;;;;6.13;3.93;;;10.60;1.00;;;;;;5063101;28;20491;-86
2022/02/09 13:17:08;;;;;;;5.23;3.30;;;10.70;1.00;;;;;;5082607;28;20403;-84
2022/02/09 13:20:16;;;;;;;4.13;3.53;;;10.80;1.00;;;;;;5081419;28;20462;-86
2022/02/09 13:23:18;;;;;;;4.03;3.30;;;10.90;1.00;;;;;;5083290;28;20986;-86
2022/02/09 14:03:57;;;;;;;3.70;2.90;;;11.20;1.00;;;;;;5095207;28;20547;-86
2022/02/09 14:12:22;;;;;;;5.53;3.33;;;10.80;1.00;;;;;;5092028;28;20448;-86
2022/02/09 14:18:33;;;;;;;3.00;2.70;;;10.70;1.00;;;;;;5115256;27;1482302;-87
2022/02/09 14:31:34;;;;;;;5.47;2.87;;;10.70;1.00;;;;;;5127680;27;21119;-89
2022/02/09 14:35:19;;;;;;;4.10;3.00;;;10.60;1.00;;;;;;5128412;27;20485;-88
2022/02/09 14:49:51;;;;;;;4.07;3.00;;;10.50;1.00;;;;;;5120667;27;20501;-88
2022/02/09 14:52:18;;;;;;;6.00;2.90;;;10.50;1.00;;;;;;5119182;27;20452;-87
2022/02/09 14:54:49;;;;;;;6.20;3.17;;;10.40;1.00;;;;;;5109480;27;20456;-87
2022/02/09 14:57:20;;;;;;;9.27;3.50;;;10.40;1.00;;;;;;5111159;27;20346;-82
2022/02/09 15:00:05;;;;;;;3.23;2.93;;;10.40;1.00;;;;;;5122237;27;20574;-83
2022/02/09 15:08:12;;;;;;;4.60;2.80;;;10.50;1.00;;;;;;5104092;27;20485;-82
2022/02/09 15:10:45;;;;;;;5.47;3.07;;;10.50;1.00;;;;;;5120109;27;20448;-80
2022/02/09 15:13:34;;;;;;;3.80;2.80;;;10.40;1.00;;;;;;5114731;27;21344;-80
2022/02/09 15:16:10;;;;;;;4.40;3.33;;;10.30;1.00;;;;;;5127857;27;20421;-82
2022/02/09 15:19:04;;;;;;;3.97;2.90;;;10.30;1.00;;;;;;5133974;27;20733;-81
2022/02/09 15:24:21;;;;;;;5.35;3.70;;;10.10;1.00;;;;;;5118939;27;20504;-80
2022/02/09 15:26:50;;;;;;;3.92;3.33;;;10.10;1.00;;;;;;5127186;27;20253;-81
2022/02/09 15:29:18;;;;;;;4.23;3.70;;;10.10;1.00;;;;;;5109758;27;20220;-78
2022/02/09 15:31:46;;;;;;;4.30;3.47;;;10.00;1.00;;;;;;5115683;27;20429;-81
2022/02/09 15:34:17;;;;;;;4.43;3.90;;;10.00;1.00;;;;;;5105673;27;20682;-86
2022/02/09 15:36:53;;;;;;;4.57;4.00;;;10.00;1.00;;;;;;5108235;27;20457;-85
2022/02/09 15:39:22;;;;;;;4.50;3.67;;;10.00;1.00;;;;;;5109064;27;20473;-85
2022/02/09 15:42:05;;;;;;;4.15;3.67;;;9.90;1.00;;;;;;5115818;27;20475;-84
2022/02/09 15:56:32;;;;;;;7.07;4.87;;;9.70;1.00;;;;;;5131744;27;20407;-85
2022/02/09 15:59:38;;;;;;;5.17;4.00;;;9.80;1.00;;;;;;5113573;27;20412;-86
2022/02/09 16:10:51;;;;;;;7.80;4.80;;;9.50;1.00;;;;;;5115072;28;20226;-85
2022/02/09 16:16:56;;;;;;;4.95;4.45;;;9.50;1.00;;;;;;5131423;27;20426;-86
2022/02/09 16:19:49;;;;;;;5.28;4.25;;;9.50;1.00;;;;;;5128417;27;20220;-85
2022/02/09 16:22:25;;;;;;;5.38;4.35;;;9.50;1.00;;;;;;5113025;28;20224;-86
2022/02/09 16:25:15;;;;;;;5.13;4.63;;;9.50;1.00;;;;;;5126954;27;21080;-86
2022/02/09 16:33:18;;;;;;;5.60;4.85;;;9.50;1.00;;;;;;5109200;27;20221;-85
2022/02/09 16:44:15;;;;;;;8.77;4.97;;;9.60;1.00;;;;;;5118708;27;1176269;-86
2022/02/09 16:44:37;;;;;;;6.10;5.50;;;9.60;1.00;;;;;;5137255;27;20746;-88
2022/02/09 16:47:07;;;;;;;6.27;5.67;;;9.70;1.00;;;;;;5138457;27;20534;-88
2022/02/09 16:49:44;;;;;;;10.73;4.93;;;9.70;1.00;;;;;;5140563;27;20468;-87
2022/02/09 16:52:15;;;;;;;6.40;4.97;;;9.80;1.00;;;;;;5137125;27;20524;-88
2022/02/09 16:54:51;;;;;;;5.33;4.70;;;9.80;1.00;;;;;;5141952;27;20546;-88
2022/02/09 17:08:36;;;;;;;6.63;6.03;;;9.40;1.00;;;;;;5110220;27;20486;-84
2022/02/09 17:19:49;;;;;;;7.53;5.47;;;9.10;1.00;;;;;;5077246;28;20260;-84
2022/02/09 17:22:16;;;;;;;6.75;5.82;;;9.10;1.00;;;;;;5075759;28;20419;-83
2022/02/09 17:24:43;;;;;;;5.80;5.30;;;9.10;1.00;;;;;;5117126;27;20221;-83
2022/02/09 17:27:17;;;;;;;6.28;5.50;;;9.10;1.00;;;;;;5138925;27;21446;-83
2022/02/09 17:30:02;;;;;;;7.10;6.40;;;9.10;1.00;;;;;;5138305;27;20304;-83
2022/02/09 17:32:36;;;;;;;5.53;4.88;;;9.20;1.00;;;;;;5136859;27;20226;-82
2022/02/09 17:35:10;;;;;;;6.15;4.90;;;9.20;1.00;;;;;;5138447;27;20315;-82
2022/02/09 17:38:16;;;;;;;5.50;5.00;;;9.20;1.00;;;;;;5138732;27;21436;-83
2022/02/09 17:55:21;;;;;;;4.55;4.15;;;9.50;1.00;;;;;;5113681;27;20233;-85
2022/02/09 17:57:35;;;;;;;6.20;5.70;;;9.50;1.00;;;;;;5132136;27;20271;-84
2022/02/09 18:00:12;;;;;;;5.80;5.30;;;9.60;1.00;;;;;;5109539;27;20215;-85
2022/02/09 18:02:41;;;;;;;6.70;5.13;;;9.60;1.00;;;;;;5136282;27;20561;-85
2022/02/09 18:05:14;;;;;;;5.07;4.68;;;9.60;1.00;;;;;;5139719;27;20399;-85
2022/02/09 18:08:09;;;;;;;7.60;6.07;;;9.50;1.00;;;;;;5152885;27;20196;-84
2022/02/09 18:10:48;;;;;;;6.07;5.30;;;9.50;1.00;;;;;;5153673;27;20214;-85
2022/02/09 18:13:43;;;;;;;7.05;5.55;;;9.40;1.00;;;;;;5146764;27;20302;-85
2022/02/09 18:29:57;;;;;;;9.02;8.13;;;9.40;1.00;;;;;;5145287;27;20224;-88
2022/02/09 18:43:55;;;;;;;7.03;6.33;;;9.50;1.00;;;;;;5137375;27;20236;-86
2022/02/09 18:46:31;;;;;;;7.97;7.20;;;9.50;1.00;;;;;;5146565;27;20433;-86
2022/02/09 18:56:53;;;;;;;8.18;6.50;;;9.60;1.00;;;;;;5151372;27;20420;-86
2022/02/09 18:58:40;;;;;;;7.10;6.37;;;9.60;1.00;;;;;;5131907;27;20226;-89
2022/02/09 19:03:35;;;;;;;6.65;5.80;;;9.60;1.00;;;;;;5126884;22;20242;-87
2022/02/09 19:06:16;;;;;;;8.67;6.53;;;9.60;1.00;;;;;;5095596;28;20229;-88
2022/02/09 19:09:01;;;;;;;8.93;6.82;;;9.60;1.00;;;;;;5103408;28;20478;-87
2022/02/09 19:14:29;;;;;;;9.45;6.70;;;9.60;1.00;;;;;;5074180;28;20209;-87
2022/02/09 19:17:04;;;;;;;7.00;6.40;;;9.60;1.00;;;;;;5064111;28;20218;-88
2022/02/09 19:28:36;;;;;;;9.43;7.67;;;9.70;1.00;;;;;;5062937;28;20599;-86
2022/02/09 19:30:45;;;;;;;8.23;7.17;;;9.70;1.00;;;;;;5054721;28;20456;-86
2022/02/09 19:33:32;;;;;;;8.18;7.38;;;9.70;1.00;;;;;;5060329;28;20464;-85
2022/02/09 19:47:23;;;;;;;11.07;9.90;;;9.80;1.00;;;;;;5059594;28;20862;-85
2022/02/09 19:52:45;;;;;;;12.00;7.80;;;9.80;1.00;;;;;;5045639;28;20466;-86
2022/02/09 19:55:30;;;;;;;8.15;7.35;;;9.80;1.00;;;;;;5072140;28;20205;-86
2022/02/09 19:58:39;;;;;;;9.03;6.90;;;9.80;1.00;;;;;;5074896;28;20244;-86
2022/02/09 20:01:08;;;;;;;8.00;7.20;;;9.80;1.00;;;;;;5078010;28;20408;-87
2022/02/09 20:03:36;;;;;;;8.00;7.20;;;9.80;1.00;;;;;;5075595;28;20249;-85
2022/02/09 20:06:06;;;;;;;7.87;7.17;;;9.80;1.00;;;;;;5083082;28;20411;-86
2022/02/09 20:08:36;;;;;;;7.22;6.55;;;9.80;1.00;;;;;;5081274;28;20465;-86
2022/02/09 20:11:04;;;;;;;9.70;6.70;;;9.80;1.00;;;;;;5069551;28;20217;-85
2022/02/09 20:14:22;;;;;;;8.93;7.60;;;9.90;1.00;;;;;;5078430;28;20401;-86
2022/02/09 20:16:53;;;;;;;8.90;8.10;;;9.80;1.00;;;;;;5071964;28;20429;-85
2022/02/09 20:19:20;;;;;;;7.63;6.93;;;9.80;1.00;;;;;;5080592;28;20423;-85
2022/02/09 20:21:47;;;;;;;9.17;7.20;;;9.80;1.00;;;;;;5079729;28;20353;-85
2022/02/09 20:24:16;;;;;;;8.33;6.63;;;9.80;1.00;;;;;;5084045;28;20420;-85
2022/02/09 20:26:46;;;;;;;8.87;8.00;;;9.80;1.00;;;;;;5072633;28;20411;-85
2022/02/09 20:29:17;;;;;;;9.40;8.50;;;9.80;1.00;;;;;;5076603;28;20407;-85
2022/02/09 20:31:50;;;;;;;8.50;7.60;;;9.70;1.00;;;;;;5075519;28;20420;-86
2022/02/09 20:34:24;;;;;;;8.48;7.60;;;9.80;1.00;;;;;;5077741;28;20404;-85
2022/02/09 20:36:52;;;;;;;7.17;6.47;;;9.80;1.00;;;;;;5080141;28;20228;-85
2022/02/09 20:39:24;;;;;;;8.23;6.90;;;9.80;1.00;;;;;;5077809;28;20455;-85
2022/02/09 20:41:53;;;;;;;10.97;9.87;;;9.80;1.00;;;;;;5073105;28;20424;-86
2022/02/09 20:44:25;;;;;;;8.83;7.20;;;9.80;1.00;;;;;;5074733;28;20407;-85
2022/02/09 20:47:11;;;;;;;8.97;7.80;;;9.80;1.00;;;;;;5071379;28;20459;-86
2022/02/09 20:52:13;;;;;;;8.00;7.20;;;9.80;1.00;;;;;;5083909;28;20459;-86
2022/02/09 20:54:41;;;;;;;7.77;7.07;;;9.80;1.00;;;;;;5081320;27;20452;-85
2022/02/09 20:57:09;;;;;;;7.77;6.83;;;9.80;1.00;;;;;;5082130;27;20687;-85
2022/02/09 20:59:41;;;;;;;8.37;7.47;;;9.70;1.00;;;;;;5073768;28;20413;-83
2022/02/09 21:02:30;;;;;;;8.67;7.80;;;9.80;1.00;;;;;;5070470;28;20454;-82
2022/02/09 21:05:08;;;;;;;8.30;7.50;;;9.70;1.00;;;;;;5063277;28;20440;-83
2022/02/09 21:07:49;;;;;;;8.40;7.60;;;9.70;1.00;;;;;;5059537;28;20526;-90
2022/02/09 21:10:35;;;;;;;9.15;7.63;;;9.70;1.00;;;;;;5062070;28;20506;-86
2022/02/09 21:13:09;;;;;;;8.40;7.00;;;9.80;1.00;;;;;;5085418;28;20219;-85
2022/02/09 21:15:48;;;;;;;11.10;9.00;;;9.80;1.00;;;;;;5058476;28;20406;-86
2022/02/09 21:18:34;;;;;;;8.63;7.83;;;9.70;1.00;;;;;;5077279;28;20577;-86
2022/02/09 21:21:23;;;;;;;10.85;8.30;;;9.70;1.00;;;;;;5062738;28;20435;-87
2022/02/09 21:24:12;;;;;;;9.03;8.13;;;9.80;1.00;;;;;;5078037;28;20289;-87
2022/02/09 21:26:57;;;;;;;9.10;8.20;;;9.80;1.00;;;;;;5067187;28;20493;-86
2022/02/09 21:32:42;;;;;;;9.90;8.43;;;9.80;1.00;;;;;;5052625;28;20477;-87
2022/02/09 21:55:22;;;;;;;12.63;8.53;;;9.80;1.00;;;;;;5078683;28;21136;-86
2022/02/09 21:58:01;;;;;;;9.77;8.77;;;9.80;1.00;;;;;;5061804;28;20439;-86
2022/02/09 22:00:42;;;;;;;8.80;7.90;;;9.70;1.00;;;;;;5075622;28;20405;-86
2022/02/09 22:19:13;;;;;;;10.87;9.77;;;9.70;1.00;;;;;;5052716;28;20411;-86
2022/02/09 22:19:58;;;;;;;9.87;8.80;;;9.70;1.00;;;;;;5073430;28;20491;-86
2022/02/09 22:22:40;;;;;;;9.80;8.80;;;9.70;1.00;;;;;;5059531;28;20483;-85